createdAt,value
2019-02-22T00:00:05.483Z,5.90
2019-02-22T00:02:36.634Z,5.90
2019-02-22T00:05:07.043Z,5.80
2019-02-22T00:07:35.464Z,5.80
2019-02-22T00:10:13.265Z,5.80
2019-02-22T00:12:52.145Z,5.80
2019-02-22T00:15:20.571Z,5.80
2019-02-22T00:17:50.634Z,5.80
2019-02-22T00:20:20.936Z,5.80
2019-02-22T00:22:58.538Z,5.80
2019-02-22T00:25:27.209Z,5.80
2019-02-22T00:28:02.983Z,5.80
2019-02-22T00:30:36.302Z,5.70
2019-02-22T00:33:09.532Z,5.80
2019-02-22T00:35:38.206Z,5.80
2019-02-22T00:38:09.733Z,5.80
2019-02-22T00:40:41.713Z,5.80
2019-02-22T00:43:17.562Z,5.70
2019-02-22T00:45:51.811Z,5.70
2019-02-22T00:48:30.914Z,5.70
2019-02-22T00:51:02.070Z,5.70
2019-02-22T00:53:33.450Z,5.70
2019-02-22T00:56:01.957Z,5.80
2019-02-22T00:58:33.066Z,5.80
2019-02-22T01:01:01.494Z,5.80
2019-02-22T01:03:33.030Z,5.70
2019-02-22T01:06:01.446Z,5.80
2019-02-22T01:08:31.502Z,5.80
2019-02-22T01:11:00.094Z,5.80
2019-02-22T01:13:39.049Z,5.80
2019-02-22T01:16:10.518Z,5.80
2019-02-22T01:18:44.481Z,5.80
2019-02-22T01:21:13.422Z,5.80
2019-02-22T01:23:44.389Z,5.80
2019-02-22T01:26:12.822Z,5.80
2019-02-22T01:28:41.238Z,5.70
2019-02-22T01:31:15.032Z,5.70
2019-02-22T01:33:43.521Z,5.70
2019-02-22T01:36:17.686Z,5.70
2019-02-22T01:38:46.105Z,5.70
2019-02-22T01:41:14.977Z,5.70
2019-02-22T01:43:45.038Z,5.70
2019-02-22T01:46:13.648Z,5.70
2019-02-22T01:48:42.057Z,5.70
2019-02-22T01:51:16.303Z,5.70
2019-02-22T01:53:47.619Z,5.70
2019-02-22T01:56:27.387Z,5.70
2019-02-22T01:58:57.783Z,5.70
2019-02-22T02:01:38.022Z,5.70
2019-02-22T02:04:06.447Z,5.70
2019-02-22T02:06:37.825Z,5.60
2019-02-22T02:09:06.390Z,5.60
2019-02-22T02:11:34.811Z,5.60
2019-02-22T02:14:06.295Z,5.60
2019-02-22T02:16:37.110Z,5.60
2019-02-22T02:19:09.026Z,5.60
2019-02-22T02:21:42.206Z,5.60
2019-02-22T02:24:10.798Z,5.60
2019-02-22T02:26:40.998Z,5.60
2019-02-22T02:29:18.162Z,5.60
2019-02-22T02:31:46.566Z,5.60
2019-02-22T02:34:16.489Z,5.60
2019-02-22T02:36:45.182Z,5.60
2019-02-22T02:39:14.006Z,5.60
2019-02-22T02:41:42.425Z,5.60
2019-02-22T02:44:13.514Z,5.60
2019-02-22T02:46:47.705Z,5.60
2019-02-22T02:49:21.989Z,5.60
2019-02-22T02:51:50.411Z,5.60
2019-02-22T02:54:18.854Z,5.60
2019-02-22T02:56:51.844Z,5.60
2019-02-22T02:59:20.611Z,5.60
2019-02-22T03:01:51.951Z,5.60
2019-02-22T03:04:20.382Z,5.60
2019-02-22T03:06:54.782Z,5.60
2019-02-22T03:09:23.217Z,5.60
2019-02-22T03:11:53.426Z,5.60
2019-02-22T03:14:25.822Z,5.60
2019-02-22T03:16:56.909Z,5.60
2019-02-22T03:19:31.006Z,5.60
2019-02-22T03:22:02.228Z,5.60
2019-02-22T03:24:30.675Z,5.60
2019-02-22T03:27:04.803Z,5.50
2019-02-22T03:29:36.158Z,5.60
2019-02-22T03:32:07.248Z,5.60
2019-02-22T03:34:38.602Z,5.60
2019-02-22T03:37:12.674Z,5.60
2019-02-22T03:39:50.122Z,5.60
2019-02-22T03:42:20.923Z,5.60
2019-02-22T03:44:55.118Z,5.60
2019-02-22T03:47:25.229Z,5.60
2019-02-22T03:49:53.671Z,5.60
2019-02-22T03:52:26.391Z,5.50
2019-02-22T03:54:57.857Z,5.60
2019-02-22T03:57:29.053Z,5.50
2019-02-22T04:00:00.541Z,5.60
2019-02-22T04:02:31.924Z,5.60
2019-02-22T04:05:01.996Z,5.60
2019-02-22T04:07:33.458Z,5.60
2019-02-22T04:10:06.485Z,5.60
2019-02-22T04:12:40.679Z,5.60
2019-02-22T04:15:12.781Z,5.60
2019-02-22T04:17:41.210Z,5.50
2019-02-22T04:20:09.639Z,5.50
2019-02-22T04:22:46.431Z,5.60
2019-02-22T04:25:17.779Z,5.60
2019-02-22T04:27:51.635Z,5.60
2019-02-22T04:30:23.010Z,5.60
2019-02-22T04:32:54.260Z,5.60
2019-02-22T04:35:26.995Z,5.60
2019-02-22T04:37:58.341Z,5.60
2019-02-22T04:40:30.529Z,5.60
2019-02-22T04:43:03.293Z,5.60
2019-02-22T04:45:32.974Z,5.60
2019-02-22T04:48:01.434Z,5.60
2019-02-22T04:50:31.550Z,5.60
2019-02-22T04:53:04.610Z,5.60
2019-02-22T04:55:35.764Z,5.60
2019-02-22T04:58:08.669Z,5.60
2019-02-22T05:00:41.659Z,5.60
2019-02-22T05:03:11.733Z,5.60
2019-02-22T05:05:40.154Z,5.60
2019-02-22T05:08:18.836Z,5.60
2019-02-22T05:10:48.881Z,5.60
2019-02-22T05:13:17.475Z,5.60
2019-02-22T05:15:48.842Z,5.60
2019-02-22T05:18:19.922Z,5.50
2019-02-22T05:20:49.957Z,5.60
2019-02-22T05:23:21.555Z,5.50
2019-02-22T05:25:49.970Z,5.60
2019-02-22T05:28:25.302Z,5.60
2019-02-22T05:30:53.722Z,5.60
2019-02-22T05:33:28.198Z,5.60
2019-02-22T05:35:59.966Z,5.60
2019-02-22T05:38:29.397Z,5.60
2019-02-22T05:41:00.765Z,5.60
2019-02-22T05:43:34.550Z,5.60
2019-02-22T05:46:11.466Z,5.60
2019-02-22T05:48:39.927Z,5.60
2019-02-22T05:51:14.265Z,5.60
2019-02-22T05:53:42.682Z,5.60
2019-02-22T05:56:22.023Z,5.60
2019-02-22T05:58:52.344Z,5.60
2019-02-22T06:01:23.659Z,5.60
2019-02-22T06:04:00.918Z,5.60
2019-02-22T06:06:32.046Z,5.60
2019-02-22T06:09:02.108Z,5.60
2019-02-22T06:11:33.022Z,5.60
2019-02-22T06:14:04.371Z,5.60
2019-02-22T06:16:40.326Z,5.60
2019-02-22T06:19:11.546Z,5.60
2019-02-22T06:21:41.944Z,5.60
2019-02-22T06:24:10.119Z,5.60
2019-02-22T06:26:41.217Z,5.60
2019-02-22T06:29:12.561Z,5.60
2019-02-22T06:31:43.727Z,5.60
2019-02-22T06:34:13.793Z,5.60
2019-02-22T06:36:42.217Z,5.60
2019-02-22T06:39:13.307Z,5.60
2019-02-22T06:41:43.313Z,5.60
2019-02-22T06:44:14.453Z,5.60
2019-02-22T06:46:45.909Z,5.60
2019-02-22T06:49:16.741Z,5.70
2019-02-22T06:51:45.153Z,5.70
2019-02-22T06:54:16.293Z,5.70
2019-02-22T06:56:46.349Z,5.70
2019-02-22T06:59:20.434Z,5.80
2019-02-22T07:01:50.129Z,5.80
2019-02-22T07:04:21.591Z,5.90
2019-02-22T07:06:55.489Z,5.90
2019-02-22T07:09:25.554Z,5.90
2019-02-22T07:12:07.381Z,5.90
2019-02-22T07:14:36.290Z,5.90
2019-02-22T07:17:12.268Z,6.00
2019-02-22T07:19:48.248Z,6.00
2019-02-22T07:22:16.714Z,6.00
2019-02-22T07:24:50.292Z,6.10
2019-02-22T07:27:27.014Z,6.20
2019-02-22T07:29:55.455Z,6.30
2019-02-22T07:32:29.818Z,6.30
2019-02-22T07:34:58.249Z,6.40
2019-02-22T07:37:32.670Z,6.50
2019-02-22T07:40:02.539Z,6.50
2019-02-22T07:42:34.002Z,6.50
2019-02-22T07:45:02.433Z,6.50
2019-02-22T07:47:35.420Z,6.60
2019-02-22T07:50:12.198Z,6.60
2019-02-22T07:52:40.615Z,6.60
2019-02-22T07:55:15.746Z,6.60
2019-02-22T07:57:45.787Z,6.60
2019-02-22T08:00:19.818Z,6.70
2019-02-22T08:02:48.238Z,6.70
2019-02-22T08:05:23.769Z,6.80
2019-02-22T08:08:03.565Z,6.80
2019-02-22T08:10:39.635Z,6.90
2019-02-22T08:13:19.172Z,7.30
2019-02-22T08:15:39.866Z,7.80
2019-02-22T08:18:08.333Z,8.30
2019-02-22T08:20:39.682Z,8.40
2019-02-22T08:23:09.722Z,8.50
2019-02-22T08:25:43.972Z,8.50
2019-02-22T08:28:12.423Z,8.40
2019-02-22T08:30:42.478Z,8.30
2019-02-22T08:33:14.128Z,8.10
2019-02-22T08:35:46.509Z,8.00
2019-02-22T08:38:20.235Z,8.00
2019-02-22T08:40:53.238Z,8.00
2019-02-22T08:43:31.201Z,8.20
2019-02-22T08:46:00.430Z,8.10
2019-02-22T08:48:32.716Z,8.10
2019-02-22T08:51:06.884Z,8.00
2019-02-22T08:53:37.990Z,7.90
2019-02-22T08:56:09.547Z,7.80
2019-02-22T08:58:42.505Z,7.70
2019-02-22T09:01:22.238Z,7.50
2019-02-22T09:03:51.337Z,7.60
2019-02-22T09:06:25.997Z,7.80
2019-02-22T09:08:58.934Z,8.00
2019-02-22T09:11:27.354Z,8.20
2019-02-22T09:13:57.422Z,8.30
2019-02-22T09:16:31.978Z,8.40
2019-02-22T09:19:03.321Z,8.40
2019-02-22T09:21:34.391Z,8.50
2019-02-22T09:24:05.571Z,8.60
2019-02-22T09:26:33.978Z,8.90
2019-02-22T09:29:02.403Z,9.20
2019-02-22T09:31:35.018Z,9.70
2019-02-22T09:34:05.066Z,10.10
2019-02-22T09:36:33.726Z,10.00
2019-02-22T09:39:08.560Z,9.90
2019-02-22T09:41:36.978Z,9.60
2019-02-22T09:44:08.315Z,9.30
2019-02-22T09:46:39.638Z,9.00
2019-02-22T09:49:09.700Z,8.80
2019-02-22T09:51:45.354Z,8.60
2019-02-22T09:54:13.786Z,8.50
2019-02-22T09:56:44.082Z,8.60
2019-02-22T09:59:18.535Z,8.60
2019-02-22T10:01:47.212Z,8.90
2019-02-22T10:04:15.634Z,9.10
2019-02-22T10:06:45.694Z,9.30
2019-02-22T10:09:14.130Z,9.30
2019-02-22T10:11:48.497Z,9.30
2019-02-22T10:14:16.921Z,9.30
2019-02-22T10:16:48.046Z,9.20
2019-02-22T10:19:16.475Z,9.10
2019-02-22T10:21:47.559Z,9.00
2019-02-22T10:24:18.645Z,8.80
2019-02-22T10:26:49.983Z,8.70
2019-02-22T10:29:20.282Z,8.60
2019-02-22T10:31:48.704Z,8.50
2019-02-22T10:34:22.922Z,8.40
2019-02-22T10:36:55.636Z,8.30
2019-02-22T10:39:26.966Z,8.20
2019-02-22T10:42:02.114Z,8.10
2019-02-22T10:44:33.326Z,8.10
2019-02-22T10:47:07.834Z,8.00
2019-02-22T10:49:36.738Z,8.00
2019-02-22T10:52:06.795Z,8.00
2019-02-22T10:54:35.214Z,8.00
2019-02-22T10:57:12.051Z,8.00
2019-02-22T10:59:42.102Z,8.00
2019-02-22T11:02:12.243Z,8.00
2019-02-22T11:04:40.663Z,7.90
2019-02-22T11:07:18.141Z,7.90
2019-02-22T11:09:49.470Z,7.90
2019-02-22T11:12:21.670Z,8.00
2019-02-22T11:14:53.161Z,8.10
2019-02-22T11:17:24.741Z,8.30
2019-02-22T11:19:56.430Z,8.50
2019-02-22T11:22:27.804Z,8.60
2019-02-22T11:24:56.218Z,8.70
2019-02-22T11:27:24.777Z,8.80
2019-02-22T11:29:57.490Z,9.00
2019-02-22T11:32:29.081Z,9.20
2019-02-22T11:35:00.329Z,9.40
2019-02-22T11:37:37.165Z,9.60
2019-02-22T11:40:12.458Z,9.70
2019-02-22T11:42:40.882Z,9.60
2019-02-22T11:45:10.242Z,9.40
2019-02-22T11:47:40.298Z,9.30
2019-02-22T11:50:12.425Z,9.20
2019-02-22T11:52:45.309Z,9.10
2019-02-22T11:55:14.130Z,9.00
2019-02-22T11:57:44.207Z,9.00
2019-02-22T12:00:20.706Z,9.00
2019-02-22T12:02:52.094Z,9.10
2019-02-22T12:05:20.498Z,9.20
2019-02-22T12:07:48.935Z,9.30
2019-02-22T12:10:20.139Z,9.40
2019-02-22T12:12:48.645Z,9.40
2019-02-22T12:15:31.189Z,9.30
2019-02-22T12:17:59.671Z,9.30
2019-02-22T12:20:31.306Z,9.20
2019-02-22T12:23:03.675Z,8.90
2019-02-22T12:25:32.093Z,8.80
2019-02-22T12:28:03.493Z,8.70
2019-02-22T12:30:31.898Z,8.60
2019-02-22T12:33:03.487Z,8.50
2019-02-22T12:35:42.253Z,8.40
2019-02-22T12:38:10.741Z,8.30
2019-02-22T12:40:39.169Z,8.20
2019-02-22T12:43:10.502Z,8.10
2019-02-22T12:45:38.926Z,8.00
2019-02-22T12:48:13.159Z,8.10
2019-02-22T12:50:41.574Z,8.30
2019-02-22T12:53:11.261Z,8.60
2019-02-22T12:55:42.290Z,9.10
2019-02-22T12:58:10.713Z,9.50
2019-02-22T13:00:39.211Z,9.80
2019-02-22T13:03:09.679Z,9.90
2019-02-22T13:05:45.148Z,10.00
2019-02-22T13:08:13.690Z,10.20
2019-02-22T13:10:42.101Z,10.30
2019-02-22T13:13:10.534Z,10.30
2019-02-22T13:15:47.638Z,10.20
2019-02-22T13:18:17.703Z,10.10
2019-02-22T13:20:53.180Z,9.90
2019-02-22T13:23:20.850Z,9.70
2019-02-22T13:25:49.258Z,9.60
2019-02-22T13:28:18.557Z,9.60
2019-02-22T13:30:49.982Z,9.60
2019-02-22T13:33:21.353Z,9.80
2019-02-22T13:35:49.758Z,10.10
2019-02-22T13:38:19.726Z,10.50
2019-02-22T13:40:49.946Z,10.80
2019-02-22T13:43:21.415Z,10.90
2019-02-22T13:45:49.858Z,11.00
2019-02-22T13:48:18.286Z,11.30
2019-02-22T13:50:46.701Z,11.60
2019-02-22T13:53:15.126Z,11.80
2019-02-22T13:55:46.255Z,11.70
2019-02-22T13:58:14.678Z,11.50
2019-02-22T14:00:46.035Z,11.30
2019-02-22T14:03:17.506Z,11.00
2019-02-22T14:05:47.569Z,10.70
2019-02-22T14:08:28.822Z,10.40
2019-02-22T14:11:07.589Z,10.00
2019-02-22T14:13:36.006Z,9.60
2019-02-22T14:16:06.054Z,9.20
2019-02-22T14:18:38.826Z,8.90
2019-02-22T14:21:11.974Z,8.60
2019-02-22T14:23:43.347Z,8.30
2019-02-22T14:26:12.784Z,8.00
2019-02-22T14:28:42.806Z,7.80
2019-02-22T14:31:12.862Z,7.60
2019-02-22T14:33:42.905Z,7.40
2019-02-22T14:36:16.874Z,7.30
2019-02-22T14:38:47.966Z,7.20
2019-02-22T14:41:19.774Z,7.10
2019-02-22T14:43:49.834Z,7.20
2019-02-22T14:46:25.891Z,7.10
2019-02-22T14:48:50.431Z,7.10
2019-02-22T14:51:21.887Z,7.00
2019-02-22T14:53:53.242Z,6.80
2019-02-22T14:56:21.661Z,6.80
2019-02-22T14:58:50.079Z,6.60
2019-02-22T15:01:18.499Z,6.50
2019-02-22T15:03:47.130Z,6.30
2019-02-22T15:06:18.339Z,6.30
2019-02-22T15:08:53.109Z,6.30
2019-02-22T15:11:27.903Z,6.30
2019-02-22T15:13:56.535Z,6.20
2019-02-22T15:16:29.439Z,6.20
2019-02-22T15:18:57.950Z,6.10
2019-02-22T15:21:29.089Z,6.10
2019-02-22T15:23:57.506Z,6.20
2019-02-22T15:26:27.596Z,6.20
2019-02-22T15:28:58.856Z,6.20
2019-02-22T15:31:35.866Z,6.10
2019-02-22T15:34:00.435Z,6.10
2019-02-22T15:36:34.507Z,6.00
2019-02-22T15:39:11.661Z,5.90
2019-02-22T15:41:43.022Z,5.90
2019-02-22T15:44:12.635Z,5.80
2019-02-22T15:46:43.808Z,5.80
2019-02-22T15:49:17.193Z,5.70
2019-02-22T15:51:45.751Z,5.60
2019-02-22T15:54:14.180Z,5.50
2019-02-22T15:56:42.591Z,5.40
2019-02-22T15:59:12.414Z,5.40
2019-02-22T16:01:55.190Z,5.30
2019-02-22T16:04:34.754Z,5.30
2019-02-22T16:07:03.233Z,5.30
2019-02-22T16:09:34.574Z,5.20
2019-02-22T16:12:03.008Z,5.10
2019-02-22T16:14:37.258Z,5.10
2019-02-22T16:17:12.622Z,5.00
2019-02-22T16:19:46.390Z,5.00
2019-02-22T16:22:14.807Z,4.90
2019-02-22T16:24:46.197Z,4.80
2019-02-22T16:27:14.653Z,4.80
2019-02-22T16:29:43.180Z,4.80
2019-02-22T16:32:14.637Z,4.70
2019-02-22T16:34:44.214Z,4.70
2019-02-22T16:37:13.299Z,4.60
2019-02-22T16:39:41.806Z,4.60
2019-02-22T16:42:10.294Z,4.50
2019-02-22T16:44:40.393Z,4.50
2019-02-22T16:47:08.843Z,4.40
2019-02-22T16:49:37.414Z,4.40
2019-02-22T16:52:08.869Z,4.30
2019-02-22T16:54:40.242Z,4.30
2019-02-22T16:57:13.069Z,4.30
2019-02-22T16:59:41.542Z,4.30
2019-02-22T17:02:11.894Z,4.20
2019-02-22T17:04:43.109Z,4.20
2019-02-22T17:07:11.510Z,4.20
2019-02-22T17:09:42.628Z,4.00
2019-02-22T17:12:11.045Z,3.90
2019-02-22T17:14:42.114Z,3.80
2019-02-22T17:17:16.386Z,3.70
2019-02-22T17:19:47.596Z,3.60
2019-02-22T17:22:16.015Z,3.60
2019-02-22T17:24:47.409Z,3.60
2019-02-22T17:27:15.853Z,3.50
2019-02-22T17:29:47.294Z,3.50
2019-02-22T17:32:18.754Z,3.50
2019-02-22T17:34:53.136Z,3.50
2019-02-22T17:37:21.544Z,3.50
2019-02-22T17:39:49.969Z,3.50
2019-02-22T17:42:30.226Z,3.50
2019-02-22T17:44:58.657Z,3.50
2019-02-22T17:47:28.710Z,3.50
2019-02-22T17:50:01.426Z,3.50
2019-02-22T17:52:31.801Z,3.40
2019-02-22T17:54:59.997Z,3.40
2019-02-22T17:57:28.415Z,3.40
2019-02-22T17:59:56.833Z,3.40
2019-02-22T18:02:29.284Z,3.30
2019-02-22T18:04:57.707Z,3.40
2019-02-22T18:07:32.250Z,3.40
2019-02-22T18:10:02.003Z,3.40
2019-02-22T18:12:33.750Z,3.30
2019-02-22T18:15:02.503Z,3.30
2019-02-22T18:17:30.922Z,3.20
2019-02-22T18:19:59.346Z,3.20
2019-02-22T18:22:33.656Z,3.20
2019-02-22T18:25:02.081Z,3.10
2019-02-22T18:27:52.640Z,3.10
2019-02-22T18:30:22.014Z,3.10
2019-02-22T18:32:53.366Z,3.10
2019-02-22T18:35:23.430Z,3.10
2019-02-22T18:37:54.294Z,3.10
2019-02-22T18:40:24.353Z,3.00
2019-02-22T18:42:52.774Z,3.00
2019-02-22T18:45:24.138Z,3.00
2019-02-22T18:47:55.210Z,3.00
2019-02-22T18:50:23.918Z,3.00
2019-02-22T18:53:01.434Z,3.00
2019-02-22T18:55:31.208Z,2.90
2019-02-22T18:57:59.667Z,2.80
2019-02-22T19:00:32.685Z,2.70
2019-02-22T19:03:02.762Z,2.60
2019-02-22T19:05:37.367Z,2.50
2019-02-22T19:08:08.553Z,2.30
2019-02-22T19:10:39.910Z,2.20
2019-02-22T19:13:13.653Z,2.20
2019-02-22T19:15:44.882Z,2.20
2019-02-22T19:18:14.941Z,2.20
2019-02-22T19:20:45.002Z,2.20
2019-02-22T19:23:16.182Z,2.30
2019-02-22T19:25:50.326Z,2.30
2019-02-22T19:28:18.757Z,2.30
2019-02-22T19:30:50.304Z,2.30
2019-02-22T19:33:23.034Z,2.30
2019-02-22T19:35:54.446Z,2.40
2019-02-22T19:38:22.879Z,2.40
2019-02-22T19:40:57.268Z,2.40
2019-02-22T19:43:29.952Z,2.40
2019-02-22T19:45:58.369Z,2.40
2019-02-22T19:48:26.913Z,2.40
2019-02-22T19:51:00.531Z,2.40
2019-02-22T19:53:28.959Z,2.50
2019-02-22T19:56:03.441Z,2.50
2019-02-22T19:58:31.870Z,2.40
2019-02-22T20:01:05.283Z,2.30
2019-02-22T20:03:35.122Z,2.20
2019-02-22T20:06:06.452Z,2.10
2019-02-22T20:08:40.502Z,2.10
2019-02-22T20:11:19.102Z,2.00
2019-02-22T20:13:39.088Z,1.90
2019-02-22T20:16:12.050Z,1.80
2019-02-22T20:18:45.181Z,1.80
2019-02-22T20:21:15.130Z,1.70
2019-02-22T20:23:43.838Z,1.70
2019-02-22T20:26:12.250Z,1.70
2019-02-22T20:28:40.757Z,1.70
2019-02-22T20:31:19.914Z,1.70
2019-02-22T20:33:43.959Z,1.70
2019-02-22T20:36:28.048Z,1.80
2019-02-22T20:38:56.635Z,1.80
2019-02-22T20:41:25.047Z,1.80
2019-02-22T20:43:56.237Z,1.80
2019-02-22T20:46:27.377Z,1.80
2019-02-22T20:49:04.745Z,1.70
2019-02-22T20:51:33.165Z,1.70
2019-02-22T20:54:01.966Z,1.70
2019-02-22T20:56:33.669Z,1.60
2019-02-22T20:59:05.194Z,1.70
2019-02-22T21:01:36.810Z,1.60
2019-02-22T21:04:11.035Z,1.60
2019-02-22T21:06:42.134Z,1.60
2019-02-22T21:09:16.814Z,1.50
2019-02-22T21:11:48.325Z,1.50
2019-02-22T21:14:16.773Z,1.50
2019-02-22T21:16:45.225Z,1.40
2019-02-22T21:19:16.305Z,1.40
2019-02-22T21:21:46.422Z,1.40
2019-02-22T21:24:20.413Z,1.40
2019-02-22T21:26:49.301Z,1.40
2019-02-22T21:29:26.221Z,1.40
2019-02-22T21:32:02.305Z,1.30
2019-02-22T21:34:35.058Z,1.30
2019-02-22T21:37:06.577Z,1.30
2019-02-22T21:39:40.894Z,1.20
2019-02-22T21:42:19.829Z,1.20
2019-02-22T21:44:43.527Z,1.20
2019-02-22T21:47:11.953Z,1.10
2019-02-22T21:49:44.705Z,1.10
2019-02-22T21:52:14.774Z,1.10
2019-02-22T21:54:53.654Z,1.10
2019-02-22T21:57:22.081Z,1.10
2019-02-22T21:59:58.900Z,1.10
2019-02-22T22:02:27.390Z,1.10
2019-02-22T22:04:56.181Z,1.00
2019-02-22T22:07:27.238Z,1.00
2019-02-22T22:09:57.294Z,0.90
2019-02-22T22:12:25.717Z,0.90
2019-02-22T22:14:54.130Z,0.80
2019-02-22T22:17:22.639Z,0.80
2019-02-22T22:19:54.117Z,0.70
2019-02-22T22:22:25.953Z,0.80
2019-02-22T22:25:00.030Z,0.80
2019-02-22T22:27:28.702Z,0.80
2019-02-22T22:30:02.894Z,0.90
2019-02-22T22:32:35.469Z,0.80
2019-02-22T22:35:07.023Z,0.80
2019-02-22T22:37:44.058Z,0.80
2019-02-22T22:40:15.446Z,0.70
2019-02-22T22:42:44.362Z,0.80
2019-02-22T22:45:18.447Z,0.80
2019-02-22T22:47:47.945Z,0.70
2019-02-22T22:50:18.992Z,0.70
2019-02-22T22:52:49.056Z,0.70
2019-02-22T22:55:20.495Z,0.60
2019-02-22T22:58:00.860Z,0.60
2019-02-22T23:00:51.607Z,0.60
2019-02-22T23:03:20.992Z,0.60
2019-02-22T23:05:49.414Z,0.60
2019-02-22T23:08:20.297Z,0.60
2019-02-22T23:10:48.781Z,0.60
2019-02-22T23:13:17.282Z,0.50
2019-02-22T23:15:45.706Z,0.50
2019-02-22T23:18:14.129Z,0.50
2019-02-22T23:20:42.553Z,0.40
2019-02-22T23:23:14.832Z,0.50
2019-02-22T23:25:54.949Z,0.40
2019-02-22T23:28:27.109Z,0.30
2019-02-22T23:31:09.873Z,0.20
2019-02-22T23:33:52.705Z,0.10
2019-02-22T23:36:24.143Z,0.00
2019-02-22T23:39:05.660Z,-0.10
2019-02-22T23:41:37.154Z,-0.20
2019-02-22T23:44:05.653Z,-0.20
2019-02-22T23:46:39.494Z,-0.30
2019-02-22T23:49:13.086Z,-0.30
2019-02-22T23:51:48.406Z,-0.40
2019-02-22T23:54:16.842Z,-0.40
2019-02-22T23:56:50.829Z,-0.40
2019-02-22T23:59:22.369Z,-0.50
